CheckWX is a tool to help pilots better visualize weather data.  It is not intended as a substitute for an official pre-flight weather briefing.

12:25:34 UTC

KPRC TAF
Ernest A Love Field Airport
Prescott, Arizona, USA
KPRC 271122Z 2712/2812 18007KT P6SM SKC FM271600 17011G20KT P6SM SKC FM271900 20014G25KT P6SM SKC FM280200 20008KT P6SM SKC

Jun-27@
12:00 UTC

Jun-27 @ 12:00 UTC

Jun-27@
16:00 UTC

Jun-27 @ 16:00 UTC

KPRC 271122Z 2712/2812 18007KT P6SM SKC
Wind
  • 180° at 7 KTS
Cloud Levels
  • Clear skies

Jun-27@
16:00 UTC

Jun-27 @ 16:00 UTC

Jun-27@
19:00 UTC

Jun-27 @ 19:00 UTC

FM271600 17011G20KT P6SM SKC

From

From Standard forecast or significant change

Wind
  • 170° at 11 KTS
  • {Gusting to 20 KTS
Cloud Levels
  • Clear skies

Jun-27@
19:00 UTC

Jun-27 @ 19:00 UTC

Jun-28@
02:00 UTC

Jun-28 @ 02:00 UTC

FM271900 20014G25KT P6SM SKC

From

From Standard forecast or significant change

Wind
  • 200° at 14 KTS
  • {Gusting to 25 KTS
Cloud Levels
  • Clear skies

Jun-28@
02:00 UTC

Jun-28 @ 02:00 UTC

Jun-28@
12:00 UTC

Jun-28 @ 12:00 UTC

FM280200 20008KT P6SM SKC

From

From Standard forecast or significant change

Wind
  • 200° at 8 KTS
Cloud Levels
  • Clear skies